Ojai, CA (93023)

9:41 AM PST on December 04, 2016 (GMT -0800)
Fairview Road | | Change Station

Elev 1056 ft 34.46 °N, 119.26 °W | Updated 2 minutes ago

Clear
Clear
58.2 °F
Feels Like 58.2 °F
N
0.0
Wind Variable Wind from South

Today
High -- | Low -- °F
--% Chance of Precip.
Yesterday
High -- | Low -- °F
Precip. -- in
Pressure 30.09 in
Visibility -9999.0 miles
Clouds Clear
Dew Point 23 °F
Humidity 25%
Rainfall 0.00 in
Snow Depth Not available.
6:48 AM 4:46 PM
Waxing Crescent, 24% visible
METAR KOXR 041651Z 05003KT CLR 15/M01 A3008 RMK AO2 SLP187 T01501011 $
Pressure 30.09 in
Visibility -9999.0 miles
Clouds Clear
Dew Point 23 °F
Humidity 25%
Rainfall 0.00 in
Snow Depth Not available.
6:48 AM 4:46 PM
Waxing Crescent, 24% visible
METAR KOXR 041651Z 05003KT CLR 15/M01 A3008 RMK AO2 SLP187 T01501011 $

10-Day Weather Forecast

Almanac

Astronomy

Dec. 04, 2016 Rise Set
Actual Time
Civil Twilight
Nautical Twilight
Astronomical Twilight
Moon
Length of Visible Light
Length of Day
Tomorrow will be .
, % of the Moon is Illuminated

Today's Extremes

State Highs State Lows

Community

WunderPhotos

Upload Photos

1,955,635 photos uploaded!

WunderBlog® & News

Nearby

Air Quality

  Air Quality AQ Index Pollutant
Not available.

Snow Depth

Station Depth Elevation

Earthquake Activity

City Distance Mag. Time & Date
Minimum magnitude displayed is 2.5.

Coastal Water Temperatures

Place Temperature

Stations

Nearby Weather Stations

Station Location Temp. Windchill Dew Point Humidity Wind Precip. Elev Updated Type
                   

Watches & Warnings

There are currently no watches in effect.